sensor_id;sensor_type;location;lat;lon;timestamp;P1;durP1;ratioP1;P2;durP2;ratioP2
16127;SDS011;8168;49.036;7.690;2022-07-10T00:01:52;4.50;;;4.10;;
16127;SDS011;8168;49.036;7.690;2022-07-10T00:04:22;3.87;;;3.50;;
16127;SDS011;8168;49.036;7.690;2022-07-10T00:06:53;5.90;;;3.53;;
16127;SDS011;8168;49.036;7.690;2022-07-10T00:09:25;4.50;;;3.67;;
16127;SDS011;8168;49.036;7.690;2022-07-10T00:11:57;4.27;;;3.60;;
16127;SDS011;8168;49.036;7.690;2022-07-10T00:14:28;3.35;;;3.05;;
16127;SDS011;8168;49.036;7.690;2022-07-10T00:16:59;4.07;;;3.70;;
16127;SDS011;8168;49.036;7.690;2022-07-10T00:19:29;4.83;;;3.80;;
16127;SDS011;8168;49.036;7.690;2022-07-10T00:22:00;5.10;;;3.80;;
16127;SDS011;8168;49.036;7.690;2022-07-10T00:24:30;4.33;;;3.80;;
16127;SDS011;8168;49.036;7.690;2022-07-10T00:27:01;4.17;;;3.77;;
16127;SDS011;8168;49.036;7.690;2022-07-10T00:29:32;4.20;;;3.80;;
16127;SDS011;8168;49.036;7.690;2022-07-10T00:32:03;3.67;;;3.37;;
16127;SDS011;8168;49.036;7.690;2022-07-10T00:34:34;4.73;;;3.40;;
16127;SDS011;8168;49.036;7.690;2022-07-10T00:37:05;3.93;;;3.10;;
16127;SDS011;8168;49.036;7.690;2022-07-10T00:39:36;4.63;;;3.63;;
16127;SDS011;8168;49.036;7.690;2022-07-10T00:42:10;3.90;;;3.60;;
16127;SDS011;8168;49.036;7.690;2022-07-10T00:44:43;3.80;;;3.50;;
16127;SDS011;8168;49.036;7.690;2022-07-10T00:47:14;5.53;;;3.50;;
16127;SDS011;8168;49.036;7.690;2022-07-10T00:49:47;3.67;;;3.37;;
16127;SDS011;8168;49.036;7.690;2022-07-10T00:52:18;4.73;;;3.40;;
16127;SDS011;8168;49.036;7.690;2022-07-10T00:54:50;3.70;;;3.40;;
16127;SDS011;8168;49.036;7.690;2022-07-10T00:57:21;3.70;;;3.40;;
16127;SDS011;8168;49.036;7.690;2022-07-10T00:59:52;5.10;;;3.20;;
16127;SDS011;8168;49.036;7.690;2022-07-10T01:02:24;3.43;;;3.13;;
16127;SDS011;8168;49.036;7.690;2022-07-10T01:04:56;3.90;;;3.00;;
16127;SDS011;8168;49.036;7.690;2022-07-10T01:07:27;3.33;;;3.03;;
16127;SDS011;8168;49.036;7.690;2022-07-10T01:09:58;4.40;;;3.53;;
16127;SDS011;8168;49.036;7.690;2022-07-10T01:12:29;3.40;;;3.10;;
16127;SDS011;8168;49.036;7.690;2022-07-10T01:15:01;4.17;;;3.60;;
16127;SDS011;8168;49.036;7.690;2022-07-10T01:17:32;3.43;;;3.13;;
16127;SDS011;8168;49.036;7.690;2022-07-10T01:20:07;4.13;;;2.93;;
16127;SDS011;8168;49.036;7.690;2022-07-10T01:22:38;7.03;;;3.10;;
16127;SDS011;8168;49.036;7.690;2022-07-10T01:25:09;3.07;;;2.80;;
16127;SDS011;8168;49.036;7.690;2022-07-10T01:27:41;3.53;;;2.90;;
16127;SDS011;8168;49.036;7.690;2022-07-10T01:30:11;3.50;;;3.20;;
16127;SDS011;8168;49.036;7.690;2022-07-10T01:32:42;5.03;;;3.57;;
16127;SDS011;8168;49.036;7.690;2022-07-10T01:35:13;3.50;;;3.20;;
16127;SDS011;8168;49.036;7.690;2022-07-10T01:37:44;3.03;;;2.80;;
16127;SDS011;8168;49.036;7.690;2022-07-10T01:40:14;3.20;;;2.90;;
16127;SDS011;8168;49.036;7.690;2022-07-10T01:42:45;3.73;;;2.80;;
16127;SDS011;8168;49.036;7.690;2022-07-10T01:45:16;3.30;;;2.97;;
16127;SDS011;8168;49.036;7.690;2022-07-10T01:47:47;2.97;;;2.77;;
16127;SDS011;8168;49.036;7.690;2022-07-10T01:50:18;2.70;;;2.50;;
16127;SDS011;8168;49.036;7.690;2022-07-10T01:52:49;4.03;;;3.07;;
16127;SDS011;8168;49.036;7.690;2022-07-10T01:55:19;2.80;;;2.60;;
16127;SDS011;8168;49.036;7.690;2022-07-10T01:57:50;4.00;;;2.97;;
16127;SDS011;8168;49.036;7.690;2022-07-10T02:00:21;3.20;;;2.90;;
16127;SDS011;8168;49.036;7.690;2022-07-10T02:02:51;2.97;;;2.70;;
16127;SDS011;8168;49.036;7.690;2022-07-10T02:05:40;4.33;;;2.93;;
16127;SDS011;8168;49.036;7.690;2022-07-10T02:08:11;2.73;;;2.53;;
16127;SDS011;8168;49.036;7.690;2022-07-10T02:10:43;4.50;;;2.53;;
16127;SDS011;8168;49.036;7.690;2022-07-10T02:13:15;4.63;;;3.10;;
16127;SDS011;8168;49.036;7.690;2022-07-10T02:15:47;3.03;;;2.73;;
16127;SDS011;8168;49.036;7.690;2022-07-10T02:18:18;3.37;;;2.90;;
16127;SDS011;8168;49.036;7.690;2022-07-10T02:20:50;2.93;;;2.73;;
16127;SDS011;8168;49.036;7.690;2022-07-10T02:23:21;2.73;;;2.53;;
16127;SDS011;8168;49.036;7.690;2022-07-10T02:25:51;3.27;;;2.30;;
16127;SDS011;8168;49.036;7.690;2022-07-10T02:28:22;3.70;;;2.60;;
16127;SDS011;8168;49.036;7.690;2022-07-10T02:30:53;2.63;;;2.43;;
16127;SDS011;8168;49.036;7.690;2022-07-10T02:33:23;4.13;;;2.40;;
16127;SDS011;8168;49.036;7.690;2022-07-10T02:35:55;2.33;;;2.07;;
16127;SDS011;8168;49.036;7.690;2022-07-10T02:38:25;2.90;;;2.40;;
16127;SDS011;8168;49.036;7.690;2022-07-10T02:40:57;2.23;;;2.03;;
16127;SDS011;8168;49.036;7.690;2022-07-10T02:43:27;3.50;;;2.00;;
16127;SDS011;8168;49.036;7.690;2022-07-10T02:45:58;2.53;;;2.17;;
16127;SDS011;8168;49.036;7.690;2022-07-10T02:48:29;2.23;;;2.03;;
16127;SDS011;8168;49.036;7.690;2022-07-10T02:50:59;2.20;;;2.00;;
16127;SDS011;8168;49.036;7.690;2022-07-10T02:53:30;3.27;;;2.03;;
16127;SDS011;8168;49.036;7.690;2022-07-10T02:56:01;2.73;;;2.37;;
16127;SDS011;8168;49.036;7.690;2022-07-10T02:58:32;6.70;;;2.10;;
16127;SDS011;8168;49.036;7.690;2022-07-10T03:01:03;2.53;;;2.00;;
16127;SDS011;8168;49.036;7.690;2022-07-10T03:03:34;3.70;;;1.90;;
16127;SDS011;8168;49.036;7.690;2022-07-10T03:06:05;2.23;;;1.90;;
16127;SDS011;8168;49.036;7.690;2022-07-10T03:08:35;2.40;;;2.03;;
16127;SDS011;8168;49.036;7.690;2022-07-10T03:11:06;2.13;;;1.93;;
16127;SDS011;8168;49.036;7.690;2022-07-10T03:13:37;1.90;;;1.80;;
16127;SDS011;8168;49.036;7.690;2022-07-10T03:16:07;2.57;;;1.97;;
16127;SDS011;8168;49.036;7.690;2022-07-10T03:18:38;5.53;;;1.87;;
16127;SDS011;8168;49.036;7.690;2022-07-10T03:21:09;3.57;;;2.20;;
16127;SDS011;8168;49.036;7.690;2022-07-10T03:23:40;2.37;;;2.17;;
16127;SDS011;8168;49.036;7.690;2022-07-10T03:26:10;1.70;;;1.60;;
16127;SDS011;8168;49.036;7.690;2022-07-10T03:28:41;3.47;;;2.10;;
16127;SDS011;8168;49.036;7.690;2022-07-10T03:31:12;3.00;;;2.03;;
16127;SDS011;8168;49.036;7.690;2022-07-10T03:33:42;5.67;;;2.13;;
16127;SDS011;8168;49.036;7.690;2022-07-10T03:36:13;1.93;;;1.73;;
16127;SDS011;8168;49.036;7.690;2022-07-10T03:38:44;1.83;;;1.70;;
16127;SDS011;8168;49.036;7.690;2022-07-10T03:41:16;1.90;;;1.80;;
16127;SDS011;8168;49.036;7.690;2022-07-10T03:43:47;4.63;;;2.50;;
16127;SDS011;8168;49.036;7.690;2022-07-10T03:46:17;2.10;;;1.80;;
16127;SDS011;8168;49.036;7.690;2022-07-10T03:48:48;3.90;;;1.90;;
16127;SDS011;8168;49.036;7.690;2022-07-10T03:51:18;3.20;;;2.03;;
16127;SDS011;8168;49.036;7.690;2022-07-10T03:53:49;3.50;;;1.80;;
16127;SDS011;8168;49.036;7.690;2022-07-10T03:56:20;3.33;;;2.03;;
16127;SDS011;8168;49.036;7.690;2022-07-10T03:59:09;3.23;;;1.80;;
16127;SDS011;8168;49.036;7.690;2022-07-10T04:01:39;2.73;;;2.30;;
16127;SDS011;8168;49.036;7.690;2022-07-10T04:04:10;2.10;;;1.73;;
16127;SDS011;8168;49.036;7.690;2022-07-10T04:06:41;2.03;;;1.80;;
16127;SDS011;8168;49.036;7.690;2022-07-10T04:09:11;2.40;;;1.80;;
16127;SDS011;8168;49.036;7.690;2022-07-10T04:11:42;4.50;;;2.13;;
16127;SDS011;8168;49.036;7.690;2022-07-10T04:14:13;2.10;;;1.90;;
16127;SDS011;8168;49.036;7.690;2022-07-10T04:16:43;3.70;;;2.33;;
16127;SDS011;8168;49.036;7.690;2022-07-10T04:19:14;3.23;;;2.10;;
16127;SDS011;8168;49.036;7.690;2022-07-10T04:21:45;4.00;;;2.20;;
16127;SDS011;8168;49.036;7.690;2022-07-10T04:24:16;3.57;;;1.80;;
16127;SDS011;8168;49.036;7.690;2022-07-10T04:26:46;2.60;;;2.03;;
16127;SDS011;8168;49.036;7.690;2022-07-10T04:29:17;2.20;;;2.00;;
16127;SDS011;8168;49.036;7.690;2022-07-10T04:31:48;2.93;;;1.87;;
16127;SDS011;8168;49.036;7.690;2022-07-10T04:34:18;2.07;;;1.87;;
16127;SDS011;8168;49.036;7.690;2022-07-10T04:36:49;2.83;;;1.87;;
16127;SDS011;8168;49.036;7.690;2022-07-10T04:39:19;2.50;;;2.07;;
16127;SDS011;8168;49.036;7.690;2022-07-10T04:41:50;2.50;;;2.30;;
16127;SDS011;8168;49.036;7.690;2022-07-10T04:44:21;2.43;;;1.90;;
16127;SDS011;8168;49.036;7.690;2022-07-10T04:46:51;1.97;;;1.87;;
16127;SDS011;8168;49.036;7.690;2022-07-10T04:49:22;2.90;;;2.10;;
16127;SDS011;8168;49.036;7.690;2022-07-10T04:51:52;2.53;;;2.20;;
16127;SDS011;8168;49.036;7.690;2022-07-10T04:54:23;2.20;;;2.00;;
16127;SDS011;8168;49.036;7.690;2022-07-10T04:56:54;3.03;;;2.10;;
16127;SDS011;8168;49.036;7.690;2022-07-10T04:59:24;2.73;;;1.90;;
16127;SDS011;8168;49.036;7.690;2022-07-10T05:01:55;2.83;;;2.10;;
16127;SDS011;8168;49.036;7.690;2022-07-10T05:04:26;3.00;;;2.10;;
16127;SDS011;8168;49.036;7.690;2022-07-10T05:06:56;3.80;;;1.70;;
16127;SDS011;8168;49.036;7.690;2022-07-10T05:09:27;2.93;;;2.10;;
16127;SDS011;8168;49.036;7.690;2022-07-10T05:11:58;3.37;;;2.13;;
16127;SDS011;8168;49.036;7.690;2022-07-10T05:14:28;3.70;;;2.30;;
16127;SDS011;8168;49.036;7.690;2022-07-10T05:16:59;2.57;;;2.17;;
16127;SDS011;8168;49.036;7.690;2022-07-10T05:19:29;2.63;;;2.30;;
16127;SDS011;8168;49.036;7.690;2022-07-10T05:22:00;2.43;;;2.00;;
16127;SDS011;8168;49.036;7.690;2022-07-10T05:24:31;3.80;;;2.37;;
16127;SDS011;8168;49.036;7.690;2022-07-10T05:27:01;3.80;;;2.47;;
16127;SDS011;8168;49.036;7.690;2022-07-10T05:29:32;2.33;;;2.10;;
16127;SDS011;8168;49.036;7.690;2022-07-10T05:32:03;4.00;;;1.80;;
16127;SDS011;8168;49.036;7.690;2022-07-10T05:34:34;4.03;;;2.00;;
16127;SDS011;8168;49.036;7.690;2022-07-10T05:37:04;3.17;;;2.10;;
16127;SDS011;8168;49.036;7.690;2022-07-10T05:39:37;3.13;;;1.87;;
16127;SDS011;8168;49.036;7.690;2022-07-10T05:42:07;1.87;;;1.67;;
16127;SDS011;8168;49.036;7.690;2022-07-10T05:44:38;2.73;;;1.70;;
16127;SDS011;8168;49.036;7.690;2022-07-10T05:47:08;2.00;;;1.80;;
16127;SDS011;8168;49.036;7.690;2022-07-10T05:49:39;4.40;;;1.83;;
16127;SDS011;8168;49.036;7.690;2022-07-10T05:52:10;3.20;;;1.60;;
16127;SDS011;8168;49.036;7.690;2022-07-10T05:54:40;2.07;;;1.50;;
16127;SDS011;8168;49.036;7.690;2022-07-10T05:57:11;3.43;;;1.63;;
16127;SDS011;8168;49.036;7.690;2022-07-10T05:59:41;1.63;;;1.53;;
16127;SDS011;8168;49.036;7.690;2022-07-10T06:02:12;3.77;;;1.60;;
16127;SDS011;8168;49.036;7.690;2022-07-10T06:04:43;1.80;;;1.70;;
16127;SDS011;8168;49.036;7.690;2022-07-10T06:07:14;2.10;;;1.43;;
16127;SDS011;8168;49.036;7.690;2022-07-10T06:09:45;2.37;;;1.80;;
16127;SDS011;8168;49.036;7.690;2022-07-10T06:12:16;3.87;;;1.70;;
16127;SDS011;8168;49.036;7.690;2022-07-10T06:14:46;2.03;;;1.63;;
16127;SDS011;8168;49.036;7.690;2022-07-10T06:17:17;1.50;;;1.40;;
16127;SDS011;8168;49.036;7.690;2022-07-10T06:19:48;2.73;;;1.40;;
16127;SDS011;8168;49.036;7.690;2022-07-10T06:22:18;2.90;;;1.40;;
16127;SDS011;8168;49.036;7.690;2022-07-10T06:25:04;3.00;;;1.70;;
16127;SDS011;8168;49.036;7.690;2022-07-10T06:27:36;5.63;;;1.50;;
16127;SDS011;8168;49.036;7.690;2022-07-10T06:30:07;1.87;;;1.60;;
16127;SDS011;8168;49.036;7.690;2022-07-10T06:32:38;2.50;;;1.20;;
16127;SDS011;8168;49.036;7.690;2022-07-10T06:35:09;1.83;;;1.37;;
16127;SDS011;8168;49.036;7.690;2022-07-10T06:37:40;3.60;;;1.50;;
16127;SDS011;8168;49.036;7.690;2022-07-10T06:40:13;2.37;;;1.30;;
16127;SDS011;8168;49.036;7.690;2022-07-10T06:42:44;2.80;;;1.30;;
16127;SDS011;8168;49.036;7.690;2022-07-10T06:45:15;4.00;;;1.33;;
16127;SDS011;8168;49.036;7.690;2022-07-10T06:47:46;2.00;;;1.20;;
16127;SDS011;8168;49.036;7.690;2022-07-10T06:50:29;1.57;;;1.13;;
16127;SDS011;8168;49.036;7.690;2022-07-10T06:53:04;2.87;;;1.17;;
16127;SDS011;8168;49.036;7.690;2022-07-10T06:55:35;1.37;;;1.20;;
16127;SDS011;8168;49.036;7.690;2022-07-10T06:58:07;2.67;;;1.07;;
16127;SDS011;8168;49.036;7.690;2022-07-10T07:00:38;3.17;;;1.13;;
16127;SDS011;8168;49.036;7.690;2022-07-10T07:03:09;2.20;;;1.30;;
16127;SDS011;8168;49.036;7.690;2022-07-10T07:05:39;1.23;;;1.10;;
16127;SDS011;8168;49.036;7.690;2022-07-10T07:08:10;2.17;;;0.90;;
16127;SDS011;8168;49.036;7.690;2022-07-10T07:10:40;1.93;;;0.90;;
16127;SDS011;8168;49.036;7.690;2022-07-10T07:13:11;2.10;;;1.20;;
16127;SDS011;8168;49.036;7.690;2022-07-10T07:15:42;1.47;;;1.20;;
16127;SDS011;8168;49.036;7.690;2022-07-10T07:18:18;1.90;;;1.13;;
16127;SDS011;8168;49.036;7.690;2022-07-10T07:20:51;1.07;;;0.97;;
16127;SDS011;8168;49.036;7.690;2022-07-10T07:23:40;2.43;;;0.90;;
16127;SDS011;8168;49.036;7.690;2022-07-10T07:26:10;3.13;;;1.10;;
16127;SDS011;8168;49.036;7.690;2022-07-10T07:28:41;6.13;;;1.10;;
16127;SDS011;8168;49.036;7.690;2022-07-10T07:31:12;3.97;;;1.00;;
16127;SDS011;8168;49.036;7.690;2022-07-10T07:33:43;1.67;;;1.10;;
16127;SDS011;8168;49.036;7.690;2022-07-10T07:36:13;2.07;;;1.00;;
16127;SDS011;8168;49.036;7.690;2022-07-10T07:38:44;2.30;;;1.03;;
16127;SDS011;8168;49.036;7.690;2022-07-10T07:41:15;1.00;;;0.87;;
16127;SDS011;8168;49.036;7.690;2022-07-10T07:43:45;2.47;;;0.93;;
16127;SDS011;8168;49.036;7.690;2022-07-10T07:46:16;0.93;;;0.90;;
16127;SDS011;8168;49.036;7.690;2022-07-10T07:48:46;1.03;;;0.93;;
16127;SDS011;8168;49.036;7.690;2022-07-10T07:51:17;1.70;;;0.90;;
16127;SDS011;8168;49.036;7.690;2022-07-10T07:53:48;2.10;;;0.80;;
16127;SDS011;8168;49.036;7.690;2022-07-10T07:56:18;1.73;;;0.90;;
16127;SDS011;8168;49.036;7.690;2022-07-10T07:58:49;1.93;;;0.80;;
16127;SDS011;8168;49.036;7.690;2022-07-10T08:01:20;3.93;;;1.20;;
16127;SDS011;8168;49.036;7.690;2022-07-10T08:03:50;3.23;;;0.70;;
16127;SDS011;8168;49.036;7.690;2022-07-10T08:06:21;1.93;;;0.80;;
16127;SDS011;8168;49.036;7.690;2022-07-10T08:08:52;0.97;;;0.67;;
16127;SDS011;8168;49.036;7.690;2022-07-10T08:11:22;2.10;;;1.07;;
16127;SDS011;8168;49.036;7.690;2022-07-10T08:13:53;1.87;;;0.93;;
16127;SDS011;8168;49.036;7.690;2022-07-10T08:16:23;0.83;;;0.80;;
16127;SDS011;8168;49.036;7.690;2022-07-10T08:18:54;1.60;;;0.90;;
16127;SDS011;8168;49.036;7.690;2022-07-10T08:21:25;1.57;;;0.80;;
16127;SDS011;8168;49.036;7.690;2022-07-10T08:23:56;2.93;;;1.10;;
16127;SDS011;8168;49.036;7.690;2022-07-10T08:26:26;1.23;;;0.53;;
16127;SDS011;8168;49.036;7.690;2022-07-10T08:28:57;0.70;;;0.70;;
16127;SDS011;8168;49.036;7.690;2022-07-10T08:31:28;0.93;;;0.80;;
16127;SDS011;8168;49.036;7.690;2022-07-10T08:33:59;2.00;;;1.10;;
16127;SDS011;8168;49.036;7.690;2022-07-10T08:36:29;2.00;;;1.00;;
16127;SDS011;8168;49.036;7.690;2022-07-10T08:39:00;0.87;;;0.80;;
16127;SDS011;8168;49.036;7.690;2022-07-10T08:41:31;1.47;;;0.60;;
16127;SDS011;8168;49.036;7.690;2022-07-10T08:44:04;0.93;;;0.83;;
16127;SDS011;8168;49.036;7.690;2022-07-10T08:46:35;2.53;;;1.10;;
16127;SDS011;8168;49.036;7.690;2022-07-10T08:49:08;0.60;;;0.60;;
16127;SDS011;8168;49.036;7.690;2022-07-10T08:52:07;2.17;;;0.70;;
16127;SDS011;8168;49.036;7.690;2022-07-10T08:54:38;2.97;;;1.00;;
16127;SDS011;8168;49.036;7.690;2022-07-10T08:57:09;1.83;;;0.70;;
16127;SDS011;8168;49.036;7.690;2022-07-10T08:59:41;0.80;;;0.80;;
16127;SDS011;8168;49.036;7.690;2022-07-10T09:02:11;1.43;;;0.70;;
16127;SDS011;8168;49.036;7.690;2022-07-10T09:04:42;1.27;;;0.90;;
16127;SDS011;8168;49.036;7.690;2022-07-10T09:07:13;2.00;;;1.00;;
16127;SDS011;8168;49.036;7.690;2022-07-10T09:09:53;1.77;;;0.63;;
16127;SDS011;8168;49.036;7.690;2022-07-10T09:12:25;0.93;;;0.90;;
16127;SDS011;8168;49.036;7.690;2022-07-10T09:15:06;1.37;;;0.80;;
16127;SDS011;8168;49.036;7.690;2022-07-10T09:18:04;3.30;;;0.80;;
16127;SDS011;8168;49.036;7.690;2022-07-10T09:20:37;0.93;;;0.87;;
16127;SDS011;8168;49.036;7.690;2022-07-10T09:23:22;3.07;;;1.07;;
16127;SDS011;8168;49.036;7.690;2022-07-10T09:25:54;1.03;;;0.70;;
16127;SDS011;8168;49.036;7.690;2022-07-10T09:28:25;0.97;;;0.90;;
16127;SDS011;8168;49.036;7.690;2022-07-10T09:30:56;1.07;;;0.80;;
16127;SDS011;8168;49.036;7.690;2022-07-10T09:33:28;0.93;;;0.63;;
16127;SDS011;8168;49.036;7.690;2022-07-10T09:36:09;0.73;;;0.70;;
16127;SDS011;8168;49.036;7.690;2022-07-10T09:41:19;1.17;;;1.07;;
16127;SDS011;8168;49.036;7.690;2022-07-10T09:46:35;1.17;;;1.03;;
16127;SDS011;8168;49.036;7.690;2022-07-10T09:49:10;2.27;;;0.77;;
16127;SDS011;8168;49.036;7.690;2022-07-10T09:51:42;2.40;;;1.00;;
16127;SDS011;8168;49.036;7.690;2022-07-10T09:54:15;1.90;;;1.00;;
16127;SDS011;8168;49.036;7.690;2022-07-10T09:56:46;1.80;;;1.07;;
16127;SDS011;8168;49.036;7.690;2022-07-10T09:59:21;2.33;;;0.80;;
16127;SDS011;8168;49.036;7.690;2022-07-10T10:01:52;1.13;;;0.97;;
16127;SDS011;8168;49.036;7.690;2022-07-10T10:04:22;0.80;;;0.80;;
16127;SDS011;8168;49.036;7.690;2022-07-10T10:06:58;1.37;;;0.90;;
16127;SDS011;8168;49.036;7.690;2022-07-10T10:10:03;0.93;;;0.90;;
16127;SDS011;8168;49.036;7.690;2022-07-10T10:12:31;1.00;;;0.67;;
16127;SDS011;8168;49.036;7.690;2022-07-10T10:15:05;1.37;;;0.93;;
16127;SDS011;8168;49.036;7.690;2022-07-10T10:17:40;0.93;;;0.73;;
16127;SDS011;8168;49.036;7.690;2022-07-10T10:20:11;0.60;;;0.50;;
16127;SDS011;8168;49.036;7.690;2022-07-10T10:23:03;2.47;;;0.83;;
16127;SDS011;8168;49.036;7.690;2022-07-10T10:25:34;1.47;;;1.10;;
16127;SDS011;8168;49.036;7.690;2022-07-10T10:28:07;2.30;;;0.90;;
16127;SDS011;8168;49.036;7.690;2022-07-10T10:30:41;2.43;;;0.70;;
16127;SDS011;8168;49.036;7.690;2022-07-10T10:36:03;1.70;;;0.80;;
16127;SDS011;8168;49.036;7.690;2022-07-10T10:41:27;0.87;;;0.63;;
16127;SDS011;8168;49.036;7.690;2022-07-10T10:47:07;0.70;;;0.70;;
16127;SDS011;8168;49.036;7.690;2022-07-10T10:52:24;0.60;;;0.60;;
16127;SDS011;8168;49.036;7.690;2022-07-10T11:00:06;2.97;;;0.70;;
16127;SDS011;8168;49.036;7.690;2022-07-10T11:02:38;1.33;;;0.70;;
16127;SDS011;8168;49.036;7.690;2022-07-10T11:10:36;0.40;;;0.40;;
16127;SDS011;8168;49.036;7.690;2022-07-10T11:13:08;1.23;;;0.80;;
16127;SDS011;8168;49.036;7.690;2022-07-10T11:15:49;0.63;;;0.60;;
16127;SDS011;8168;49.036;7.690;2022-07-10T11:18:22;2.13;;;0.70;;
16127;SDS011;8168;49.036;7.690;2022-07-10T11:20:53;2.30;;;1.00;;
16127;SDS011;8168;49.036;7.690;2022-07-10T11:26:20;1.20;;;0.70;;
16127;SDS011;8168;49.036;7.690;2022-07-10T11:29:04;1.03;;;0.60;;
16127;SDS011;8168;49.036;7.690;2022-07-10T11:31:36;0.87;;;0.70;;
16127;SDS011;8168;49.036;7.690;2022-07-10T11:34:16;4.20;;;0.87;;
16127;SDS011;8168;49.036;7.690;2022-07-10T11:36:47;1.35;;;0.77;;
16127;SDS011;8168;49.036;7.690;2022-07-10T11:39:18;1.20;;;0.63;;
16127;SDS011;8168;49.036;7.690;2022-07-10T11:41:49;3.20;;;0.87;;
16127;SDS011;8168;49.036;7.690;2022-07-10T11:44:19;0.77;;;0.73;;
16127;SDS011;8168;49.036;7.690;2022-07-10T11:46:51;2.07;;;0.90;;
16127;SDS011;8168;49.036;7.690;2022-07-10T11:49:24;1.13;;;0.80;;
16127;SDS011;8168;49.036;7.690;2022-07-10T11:52:00;2.73;;;0.97;;
16127;SDS011;8168;49.036;7.690;2022-07-10T11:54:32;4.13;;;0.95;;
16127;SDS011;8168;49.036;7.690;2022-07-10T11:57:05;1.00;;;0.77;;
16127;SDS011;8168;49.036;7.690;2022-07-10T11:59:40;0.63;;;0.63;;
16127;SDS011;8168;49.036;7.690;2022-07-10T12:02:11;1.63;;;0.70;;
16127;SDS011;8168;49.036;7.690;2022-07-10T12:04:51;1.70;;;0.73;;
16127;SDS011;8168;49.036;7.690;2022-07-10T12:07:22;0.60;;;0.60;;
16127;SDS011;8168;49.036;7.690;2022-07-10T12:09:53;1.57;;;0.80;;
16127;SDS011;8168;49.036;7.690;2022-07-10T12:12:24;1.10;;;1.00;;
16127;SDS011;8168;49.036;7.690;2022-07-10T12:14:54;4.40;;;1.00;;
16127;SDS011;8168;49.036;7.690;2022-07-10T12:17:25;2.87;;;0.80;;
16127;SDS011;8168;49.036;7.690;2022-07-10T12:19:56;1.02;;;0.82;;
16127;SDS011;8168;49.036;7.690;2022-07-10T12:22:26;1.35;;;0.77;;
16127;SDS011;8168;49.036;7.690;2022-07-10T12:24:57;2.57;;;1.10;;
16127;SDS011;8168;49.036;7.690;2022-07-10T12:27:41;0.93;;;0.80;;
16127;SDS011;8168;49.036;7.690;2022-07-10T12:30:12;1.57;;;0.77;;
16127;SDS011;8168;49.036;7.690;2022-07-10T12:32:42;1.50;;;0.90;;
16127;SDS011;8168;49.036;7.690;2022-07-10T12:35:13;1.02;;;0.60;;
16127;SDS011;8168;49.036;7.690;2022-07-10T12:37:48;0.80;;;0.80;;
16127;SDS011;8168;49.036;7.690;2022-07-10T12:40:31;2.17;;;1.25;;
16127;SDS011;8168;49.036;7.690;2022-07-10T12:43:03;1.55;;;0.80;;
16127;SDS011;8168;49.036;7.690;2022-07-10T12:45:35;1.58;;;0.80;;
16127;SDS011;8168;49.036;7.690;2022-07-10T12:48:06;0.88;;;0.65;;
16127;SDS011;8168;49.036;7.690;2022-07-10T12:50:36;1.05;;;0.85;;
16127;SDS011;8168;49.036;7.690;2022-07-10T12:53:08;1.67;;;0.80;;
16127;SDS011;8168;49.036;7.690;2022-07-10T12:55:39;2.55;;;1.10;;
16127;SDS011;8168;49.036;7.690;2022-07-10T12:58:11;2.67;;;1.00;;
16127;SDS011;8168;49.036;7.690;2022-07-10T13:00:43;1.95;;;0.73;;
16127;SDS011;8168;49.036;7.690;2022-07-10T13:03:19;2.90;;;0.95;;
16127;SDS011;8168;49.036;7.690;2022-07-10T13:05:54;2.83;;;0.85;;
16127;SDS011;8168;49.036;7.690;2022-07-10T13:08:27;2.90;;;1.10;;
16127;SDS011;8168;49.036;7.690;2022-07-10T13:10:58;1.65;;;0.90;;
16127;SDS011;8168;49.036;7.690;2022-07-10T13:13:29;0.75;;;0.75;;
16127;SDS011;8168;49.036;7.690;2022-07-10T13:15:59;0.95;;;0.77;;
16127;SDS011;8168;49.036;7.690;2022-07-10T13:18:30;2.13;;;0.90;;
16127;SDS011;8168;49.036;7.690;2022-07-10T13:21:00;3.35;;;1.23;;
16127;SDS011;8168;49.036;7.690;2022-07-10T13:23:32;2.03;;;0.77;;
16127;SDS011;8168;49.036;7.690;2022-07-10T13:26:03;1.10;;;1.00;;
16127;SDS011;8168;49.036;7.690;2022-07-10T13:28:36;1.83;;;0.82;;
16127;SDS011;8168;49.036;7.690;2022-07-10T13:31:07;0.80;;;0.80;;
16127;SDS011;8168;49.036;7.690;2022-07-10T13:33:38;1.85;;;1.02;;
16127;SDS011;8168;49.036;7.690;2022-07-10T13:36:09;1.02;;;1.00;;
16127;SDS011;8168;49.036;7.690;2022-07-10T13:38:39;1.70;;;1.10;;
16127;SDS011;8168;49.036;7.690;2022-07-10T13:41:12;2.85;;;1.02;;
16127;SDS011;8168;49.036;7.690;2022-07-10T13:43:42;1.95;;;1.15;;
16127;SDS011;8168;49.036;7.690;2022-07-10T13:46:13;2.83;;;1.00;;
16127;SDS011;8168;49.036;7.690;2022-07-10T13:48:44;1.88;;;0.88;;
16127;SDS011;8168;49.036;7.690;2022-07-10T13:51:14;5.03;;;1.02;;
16127;SDS011;8168;49.036;7.690;2022-07-10T13:53:45;3.22;;;1.30;;
16127;SDS011;8168;49.036;7.690;2022-07-10T13:56:16;1.92;;;1.10;;
16127;SDS011;8168;49.036;7.690;2022-07-10T13:58:47;2.03;;;1.10;;
16127;SDS011;8168;49.036;7.690;2022-07-10T14:01:18;1.50;;;1.17;;
16127;SDS011;8168;49.036;7.690;2022-07-10T14:03:49;1.33;;;1.20;;
16127;SDS011;8168;49.036;7.690;2022-07-10T14:06:21;2.50;;;1.20;;
16127;SDS011;8168;49.036;7.690;2022-07-10T14:08:52;1.00;;;1.00;;
16127;SDS011;8168;49.036;7.690;2022-07-10T14:11:23;1.52;;;1.23;;
16127;SDS011;8168;49.036;7.690;2022-07-10T14:13:53;2.92;;;1.27;;
16127;SDS011;8168;49.036;7.690;2022-07-10T14:16:24;2.22;;;1.50;;
16127;SDS011;8168;49.036;7.690;2022-07-10T14:18:55;2.50;;;1.40;;
16127;SDS011;8168;49.036;7.690;2022-07-10T14:21:25;2.30;;;1.13;;
16127;SDS011;8168;49.036;7.690;2022-07-10T14:23:57;1.95;;;1.20;;
16127;SDS011;8168;49.036;7.690;2022-07-10T14:26:28;2.95;;;1.35;;
16127;SDS011;8168;49.036;7.690;2022-07-10T14:28:58;3.05;;;1.45;;
16127;SDS011;8168;49.036;7.690;2022-07-10T14:31:30;1.35;;;1.30;;
16127;SDS011;8168;49.036;7.690;2022-07-10T14:34:01;1.42;;;1.33;;
16127;SDS011;8168;49.036;7.690;2022-07-10T14:36:32;3.35;;;1.50;;
16127;SDS011;8168;49.036;7.690;2022-07-10T14:39:03;2.80;;;1.20;;
16127;SDS011;8168;49.036;7.690;2022-07-10T14:41:34;1.90;;;1.30;;
16127;SDS011;8168;49.036;7.690;2022-07-10T14:44:06;1.93;;;1.37;;
16127;SDS011;8168;49.036;7.690;2022-07-10T14:46:37;1.30;;;1.20;;
16127;SDS011;8168;49.036;7.690;2022-07-10T14:49:08;2.65;;;1.88;;
16127;SDS011;8168;49.036;7.690;2022-07-10T14:51:39;1.92;;;1.73;;
16127;SDS011;8168;49.036;7.690;2022-07-10T14:54:10;1.50;;;1.40;;
16127;SDS011;8168;49.036;7.690;2022-07-10T14:56:41;1.87;;;1.60;;
16127;SDS011;8168;49.036;7.690;2022-07-10T14:59:12;4.53;;;1.60;;
16127;SDS011;8168;49.036;7.690;2022-07-10T15:01:43;2.00;;;1.80;;
16127;SDS011;8168;49.036;7.690;2022-07-10T15:04:14;2.27;;;2.07;;
16127;SDS011;8168;49.036;7.690;2022-07-10T15:06:44;3.03;;;1.70;;
16127;SDS011;8168;49.036;7.690;2022-07-10T15:09:17;1.70;;;1.60;;
16127;SDS011;8168;49.036;7.690;2022-07-10T15:11:47;1.50;;;1.40;;
16127;SDS011;8168;49.036;7.690;2022-07-10T15:14:18;1.50;;;1.40;;
16127;SDS011;8168;49.036;7.690;2022-07-10T15:16:49;2.53;;;1.70;;
16127;SDS011;8168;49.036;7.690;2022-07-10T15:19:19;1.73;;;1.53;;
16127;SDS011;8168;49.036;7.690;2022-07-10T15:21:50;1.90;;;1.67;;
16127;SDS011;8168;49.036;7.690;2022-07-10T15:24:21;1.80;;;1.70;;
16127;SDS011;8168;49.036;7.690;2022-07-10T15:26:51;2.15;;;1.75;;
16127;SDS011;8168;49.036;7.690;2022-07-10T15:29:22;2.10;;;1.90;;
16127;SDS011;8168;49.036;7.690;2022-07-10T15:31:55;2.30;;;1.67;;
16127;SDS011;8168;49.036;7.690;2022-07-10T15:34:25;2.43;;;1.50;;
16127;SDS011;8168;49.036;7.690;2022-07-10T15:36:56;1.70;;;1.60;;
16127;SDS011;8168;49.036;7.690;2022-07-10T15:39:27;1.80;;;1.70;;
16127;SDS011;8168;49.036;7.690;2022-07-10T15:41:58;1.60;;;1.50;;
16127;SDS011;8168;49.036;7.690;2022-07-10T15:44:28;1.70;;;1.60;;
16127;SDS011;8168;49.036;7.690;2022-07-10T15:46:59;2.42;;;1.60;;
16127;SDS011;8168;49.036;7.690;2022-07-10T15:49:30;1.70;;;1.60;;
16127;SDS011;8168;49.036;7.690;2022-07-10T15:52:01;2.83;;;1.50;;
16127;SDS011;8168;49.036;7.690;2022-07-10T15:54:31;1.77;;;1.60;;
16127;SDS011;8168;49.036;7.690;2022-07-10T15:57:02;1.65;;;1.55;;
16127;SDS011;8168;49.036;7.690;2022-07-10T15:59:33;2.00;;;1.77;;